createdAt,value
2023-03-23T00:00:51.623Z,5.07
2023-03-23T00:10:57.810Z,7.10
2023-03-23T00:21:00.138Z,5.88
2023-03-23T00:31:07.268Z,5.90
2023-03-23T00:41:12.559Z,3.63
2023-03-23T00:51:14.891Z,5.22
2023-03-23T01:01:17.183Z,4.60
2023-03-23T01:11:19.479Z,7.10
2023-03-23T01:21:22.347Z,4.97
2023-03-23T01:31:27.403Z,3.55
2023-03-23T01:41:29.959Z,2.90
2023-03-23T01:51:41.882Z,3.45
2023-03-23T02:01:46.288Z,5.25
2023-03-23T02:11:51.335Z,3.10
2023-03-23T02:22:08.576Z,4.93
2023-03-23T02:32:40.700Z,3.83
2023-03-23T02:42:47.938Z,6.68
2023-03-23T02:52:51.768Z,6.32
2023-03-23T03:02:57.368Z,2.08
2023-03-23T03:13:21.103Z,3.33
2023-03-23T03:23:28.928Z,3.28
2023-03-23T06:05:09.859Z,1.95
2023-03-23T06:15:12.813Z,6.90
2023-03-23T06:25:17.097Z,6.25
2023-03-23T06:35:19.401Z,4.07
2023-03-23T06:45:21.897Z,4.95
2023-03-23T06:55:24.262Z,4.40
2023-03-23T07:05:26.570Z,4.15
2023-03-23T07:15:28.875Z,4.35
2023-03-23T07:25:31.486Z,4.00
2023-03-23T07:35:34.594Z,3.33
2023-03-23T07:45:37.176Z,3.30
2023-03-23T07:55:39.674Z,4.13
2023-03-23T08:05:43.884Z,4.13
2023-03-23T08:15:46.627Z,2.90
2023-03-23T08:25:49.737Z,4.78
2023-03-23T08:35:59.495Z,5.72
2023-03-23T08:46:07.862Z,2.97
2023-03-23T08:56:13.260Z,3.03
2023-03-23T09:06:15.630Z,2.92
2023-03-23T09:16:17.936Z,2.78
2023-03-23T09:26:20.381Z,4.53
2023-03-23T09:36:23.148Z,3.80
2023-03-23T09:46:49.369Z,3.30
2023-03-23T09:56:52.839Z,2.75
2023-03-23T10:07:17.859Z,3.13
2023-03-23T10:17:32.523Z,5.05
2023-03-23T10:27:45.507Z,5.75
2023-03-23T10:37:58.122Z,6.07
2023-03-23T10:48:05.316Z,5.60
2023-03-23T10:58:11.807Z,6.45
2023-03-23T11:08:17.189Z,3.35
2023-03-23T11:18:41.308Z,4.53
2023-03-23T11:29:13.202Z,3.38
2023-03-23T11:39:29.012Z,3.97
2023-03-23T11:49:41.462Z,6.78
2023-03-23T11:59:43.745Z,3.65
2023-03-23T12:09:50.313Z,4.18
2023-03-23T12:20:15.810Z,3.50
2023-03-23T12:30:46.263Z,3.20
2023-03-23T12:41:08.510Z,4.03
2023-03-23T12:51:25.861Z,3.40
2023-03-23T13:11:38.910Z,4.88
2023-03-23T13:22:07.419Z,4.35
2023-03-23T13:52:41.761Z,3.17
2023-03-23T14:02:46.006Z,2.47
2023-03-23T14:12:53.851Z,3.35
2023-03-23T14:22:57.554Z,2.87
2023-03-23T14:33:06.712Z,5.88
2023-03-23T14:43:13.225Z,5.28
2023-03-23T14:53:33.472Z,2.70
2023-03-23T15:03:41.098Z,2.65
2023-03-23T15:13:47.043Z,4.67
2023-03-23T15:23:49.505Z,23.85
2023-03-23T15:33:59.915Z,7.32
2023-03-23T15:44:20.086Z,2.92
2023-03-23T15:54:22.416Z,10.70
2023-03-23T16:04:24.917Z,6.55
2023-03-23T16:14:27.201Z,4.38
2023-03-23T16:24:29.617Z,10.57
2023-03-23T16:34:33.998Z,15.38
2023-03-23T16:44:36.501Z,15.63
2023-03-23T16:54:38.820Z,10.57
2023-03-23T17:04:45.838Z,7.00
2023-03-23T17:14:48.144Z,28.10
2023-03-23T17:24:51.265Z,43.20
2023-03-23T17:34:54.225Z,29.15
2023-03-23T17:44:56.643Z,29.05
2023-03-23T17:54:59.027Z,48.70
2023-03-23T18:05:01.405Z,7.78
2023-03-23T18:15:04.593Z,8.57
2023-03-23T18:25:07.084Z,5.47
2023-03-23T18:35:11.183Z,10.25
2023-03-23T18:45:13.610Z,6.07
2023-03-23T18:55:16.381Z,3.67
2023-03-23T19:05:18.875Z,8.52
2023-03-23T19:15:21.553Z,5.18
2023-03-23T19:25:23.885Z,26.50
2023-03-23T19:35:26.587Z,12.35
2023-03-23T19:45:29.127Z,7.78
2023-03-23T19:55:31.555Z,12.93
2023-03-23T20:05:35.628Z,10.18
2023-03-23T20:15:38.126Z,4.60
2023-03-23T20:25:40.857Z,11.63
2023-03-23T20:35:43.532Z,7.75
2023-03-23T20:45:46.977Z,6.93
2023-03-23T20:55:51.645Z,7.63
2023-03-23T21:05:54.034Z,8.38
2023-03-23T21:15:56.892Z,7.63
2023-03-23T21:26:02.248Z,3.30
2023-03-23T21:40:14.336Z,4.00
2023-03-23T21:50:16.995Z,5.70
2023-03-23T22:00:19.424Z,6.10
2023-03-23T22:10:21.725Z,10.38
2023-03-23T22:20:24.163Z,10.60
2023-03-23T22:30:29.921Z,4.22
2023-03-23T22:40:32.228Z,9.30
2023-03-23T22:50:34.810Z,2.90
2023-03-23T23:00:39.366Z,3.03
2023-03-23T23:10:44.241Z,5.57
2023-03-23T23:20:51.426Z,4.63
2023-03-23T23:30:54.140Z,2.15
2023-03-23T23:40:56.437Z,1.88
2023-03-23T23:50:58.697Z,2.55
